Terminal Aerodrome Forecast
Issued by NWS Riverton, WY

Home | Current Version | Previous Version | Text Only | Print | Product List | Glossary On
Versions: 1 2 3 4 5 6 7 8 9 10 11 12 13 14 15
755
FTUS45 KRIW 171735
TAFRIW
TAF
KRIW 171735Z 1718/1818 29010KT P6SM SCT060 BKN100
     FM172200 33015G25KT P6SM VCSH SCT012 BKN040
     FM180000 35020G30KT 2SM -SN BKN012 OVC030
     FM180300 30015G25KT P6SM SCT040 BKN080
     FM180600 29010KT P6SM SCT080=

USA.gov is the U.S. government's official web portal to all federal, state and local government web resources and services.